Time;durP1;ratioP1;P1;durP2;ratioP2;P2;SDS_P1;SDS_P2;PMS_P1;PMS_P2;Temp;Humidity;BMP_temperature;BMP_pressure;BME280_temperature;BME280_humidity;BME280_pressure;Samples;Min_cycle;Max_cycle;Signal;HPM_P1;HPM_P2
2022/10/02 00:00:07;;;;;;;5.10;3.40;;;;;;;11.24;100.00;99882.77;5231620;56;1139020;-68
2022/10/02 00:05:36;;;;;;;3.40;2.33;;;;;;;11.28;100.00;99889.95;5260667;55;1139051;-67
2022/10/02 00:11:01;;;;;;;2.50;2.30;;;;;;;11.28;100.00;99897.89;5171911;56;1139015;-69
2022/10/02 00:16:11;;;;;;;3.50;3.00;;;;;;;11.27;100.00;99916.07;5133714;57;1139091;-68
2022/10/02 00:22:00;;;;;;;2.30;1.97;;;;;;;11.27;100.00;99916.07;5108934;56;1139038;-67
2022/10/02 00:27:30;;;;;;;2.27;2.07;;;;;;;11.27;100.00;99912.94;5136105;57;1137052;-66
2022/10/02 00:32:52;;;;;;;4.60;2.00;;;;;;;11.27;100.00;99925.34;5136046;56;1136941;-66
2022/10/02 00:38:22;;;;;;;5.77;3.07;;;;;;;11.26;100.00;99931.60;5132738;56;1137041;-67
2022/10/02 00:43:50;;;;;;;2.83;2.63;;;;;;;11.25;100.00;99936.55;5187187;56;1136990;-68
2022/10/02 00:49:36;;;;;;;4.63;3.03;;;;;;;11.24;100.00;99941.48;5137121;57;1138995;-69
2022/10/02 00:55:18;;;;;;;2.92;2.72;;;;;;;11.25;100.00;99953.27;5133510;57;1139048;-68
2022/10/02 01:00:24;;;;;;;7.53;2.60;;;;;;;11.28;100.00;99957.45;5133754;57;1139370;-68
2022/10/02 01:05:31;;;;;;;3.73;2.40;;;;;;;11.31;100.00;99954.99;4999164;58;1139418;-70
2022/10/02 01:10:38;;;;;;;7.87;2.77;;;;;;;11.32;100.00;99956.18;4968308;59;1139336;-69
2022/10/02 01:15:55;;;;;;;3.00;2.67;;;;;;;11.34;100.00;99970.13;4996111;58;1139099;-67
2022/10/02 01:21:13;;;;;;;2.80;2.43;;;;;;;11.37;100.00;99972.50;4919878;59;1139083;-68
2022/10/02 01:26:19;;;;;;;6.43;2.60;;;;;;;11.37;100.00;99971.17;4925012;59;1139092;-67
2022/10/02 01:31:25;;;;;;;5.37;2.30;;;;;;;11.38;100.00;99983.93;4919934;59;1139002;-68
2022/10/02 01:36:31;;;;;;;3.43;2.07;;;;;;;11.40;100.00;99986.80;4994371;58;1139227;-67
2022/10/02 01:41:41;;;;;;;2.67;2.10;;;;;;;11.40;100.00;99988.13;5017437;57;1138980;-69
2022/10/02 01:47:16;;;;;;;3.73;2.13;;;;;;;11.41;100.00;100002.20;5221813;56;1139034;-67
2022/10/02 01:52:34;;;;;;;7.37;1.87;;;;;;;11.41;100.00;100003.52;5221885;56;1141135;-69
2022/10/02 01:58:02;;;;;;;5.67;2.00;;;;;;;11.43;100.00;100012.17;5174116;56;1139027;-67
2022/10/02 02:03:38;;;;;;;1.77;1.37;;;;;;;11.43;100.00;100013.49;5155977;56;1139034;-69
2022/10/02 02:08:51;;;;;;;3.40;1.57;;;;;;;11.43;100.00;100022.77;5154720;56;1139513;-67
2022/10/02 02:14:19;;;;;;;3.10;1.30;;;;;;;11.42;100.00;100035.64;5075021;57;1136986;-68
2022/10/02 02:19:27;;;;;;;3.87;1.30;;;;;;;11.41;100.00;100033.48;5076666;56;1141314;-66
2022/10/02 02:24:48;;;;;;;6.17;1.60;;;;;;;11.41;100.00;100047.20;5156020;56;1141127;-69
2022/10/02 02:30:01;;;;;;;5.23;1.60;;;;;;;11.41;100.00;100054.67;5155992;56;1141329;-67
2022/10/02 02:35:13;;;;;;;4.58;1.45;;;;;;;11.42;100.00;100062.12;5140790;57;1141224;-67
2022/10/02 02:40:23;;;;;;;1.10;1.03;;;;;;;11.42;100.00;100062.12;5064409;57;1141147;-69
2022/10/02 02:45:34;;;;;;;2.67;1.50;;;;;;;11.41;100.00;100063.94;5152015;56;1141128;-69
2022/10/02 02:50:46;;;;;;;5.03;1.50;;;;;;;11.40;100.00;100061.42;5156572;56;1141102;-69
2022/10/02 02:56:02;;;;;;;10.32;1.87;;;;;;;11.37;100.00;100053.26;5156738;56;1141093;-66
2022/10/02 03:01:08;;;;;;;1.53;1.23;;;;;;;11.33;100.00;100059.78;5154699;56;1143311;-69
2022/10/02 03:06:30;;;;;;;2.03;1.30;;;;;;;11.27;100.00;100069.12;5130627;56;1141113;-68
2022/10/02 03:11:49;;;;;;;4.97;1.40;;;;;;;11.23;100.00;100076.14;5122255;57;1141502;-68
2022/10/02 03:17:00;;;;;;;2.00;1.30;;;;;;;11.17;100.00;100082.78;5130313;56;1141311;-68
2022/10/02 03:22:13;;;;;;;5.00;1.93;;;;;;;11.13;100.00;100088.50;5170422;56;1141364;-67
2022/10/02 03:27:35;;;;;;;8.65;1.60;;;;;;;11.12;100.00;100086.83;5167816;56;1141102;-67
2022/10/02 03:32:44;;;;;;;6.27;1.57;;;;;;;11.12;100.00;100090.31;5149910;55;1141066;-68
2022/10/02 03:37:54;;;;;;;4.73;1.80;;;;;;;11.11;100.00;100077.20;5155976;56;1139041;-68
2022/10/02 03:43:00;;;;;;;8.63;1.53;;;;;;;11.15;100.00;100084.73;5176959;55;1138982;-68
2022/10/02 03:48:06;;;;;;;9.47;1.70;;;;;;;11.15;100.00;100090.53;5221564;56;1139049;-70
2022/10/02 03:53:16;;;;;;;8.03;2.03;;;;;;;11.16;100.00;100089.53;5221368;56;1139039;-69
2022/10/02 03:58:23;;;;;;;10.67;2.20;;;;;;;11.13;100.00;100097.77;5221483;56;1139343;-68
2022/10/02 04:03:45;;;;;;;10.20;1.87;;;;;;;11.10;100.00;100098.03;5211881;56;1141067;-69
2022/10/02 04:09:39;;;;;;;4.20;1.47;;;;;;;11.07;100.00;100107.06;5253281;55;1141144;-69
2022/10/02 04:15:10;;;;;;;6.05;1.45;;;;;;;11.06;100.00;100104.55;5145011;56;1141074;-67
2022/10/02 04:20:26;;;;;;;6.83;1.47;;;;;;;11.04;100.00;100108.64;5023560;58;1141167;-67
2022/10/02 04:25:39;;;;;;;9.33;2.57;;;;;;;11.04;100.00;100114.42;5025539;58;1141168;-70
2022/10/02 04:30:45;;;;;;;6.57;2.27;;;;;;;11.04;100.00;100127.65;5044238;58;1141298;-68
2022/10/02 04:36:08;;;;;;;7.43;1.03;;;;;;;11.05;100.00;100139.44;5088400;57;1141256;-68
2022/10/02 04:41:33;;;;;;;7.40;1.30;;;;;;;11.07;100.00;100136.17;5047021;58;1141096;-70
2022/10/02 04:47:00;;;;;;;9.40;1.45;;;;;;;11.11;100.00;100137.59;5044469;58;1141248;-68
2022/10/02 04:52:31;;;;;;;5.10;1.63;;;;;;;11.13;100.00;100138.31;5047384;58;1141279;-67
2022/10/02 04:58:08;;;;;;;6.03;2.43;;;;;;;11.17;100.00;100152.94;5151461;57;1141161;-68
2022/10/02 05:03:33;;;;;;;3.80;0.80;;;;;;;11.21;100.00;100160.13;5151580;57;1139301;-70
2022/10/02 05:09:05;;;;;;;6.33;1.27;;;;;;;11.19;100.00;100160.27;5148444;57;1139099;-68
2022/10/02 05:14:50;;;;;;;7.10;0.90;;;;;;;11.23;100.00;100168.30;5222292;56;1139168;-69
2022/10/02 05:20:30;;;;;;;7.40;1.82;;;;;;;11.25;100.00;100165.52;5207513;56;1141375;-70
2022/10/02 05:25:44;;;;;;;6.93;2.53;;;;;;;11.27;100.00;100166.23;5143684;56;1141214;-70
2022/10/02 05:31:11;;;;;;;11.30;1.63;;;;;;;11.29;100.00;100174.89;5198028;56;1141141;-69
2022/10/02 05:36:49;;;;;;;5.87;1.20;;;;;;;11.31;100.00;100176.89;5287556;55;1143213;-68
2022/10/02 05:42:18;;;;;;;10.37;1.87;;;;;;;11.33;100.00;100173.63;5287734;55;1141190;-69
2022/10/02 05:47:36;;;;;;;8.53;2.00;;;;;;;11.36;100.00;100182.64;5307868;55;1143459;-70
2022/10/02 05:52:56;;;;;;;5.43;1.37;;;;;;;11.37;100.00;100188.29;5257048;55;1141069;-68
2022/10/02 05:58:21;;;;;;;9.23;1.73;;;;;;;11.40;100.00;100193.33;4998326;58;1141098;-70
2022/10/02 06:03:55;;;;;;;10.27;1.60;;;;;;;11.40;100.00;100192.00;4942248;58;1139076;-70
2022/10/02 06:09:12;;;;;;;;;;;;;;;11.42;100.00;100196.69;4937029;59;1141070;-70
2022/10/02 06:14:40;;;;;;;5.53;1.37;;;;;;;11.45;100.00;100200.40;5001466;58;976429;-68
2022/10/02 06:20:01;;;;;;;9.47;1.70;;;;;;;11.44;100.00;100199.20;4998933;58;1137003;-70
2022/10/02 06:25:40;;;;;;;10.53;2.07;;;;;;;11.45;100.00;100202.21;5087354;57;1141069;-70
2022/10/02 06:30:51;;;;;;;5.73;1.50;;;;;;;11.46;100.00;100207.34;4995627;57;1143223;-69
2022/10/02 06:36:24;;;;;;;4.93;2.00;;;;;;;11.47;100.00;100211.67;5105128;57;1141154;-69
2022/10/02 06:42:01;;;;;;;9.07;1.73;;;;;;;11.46;100.00;100210.48;5080494;57;1141139;-66
2022/10/02 06:47:34;;;;;;;14.27;2.10;;;;;;;11.48;100.00;100217.81;5023866;57;1141418;-69
2022/10/02 06:52:45;;;;;;;11.97;2.13;;;;;;;11.47;100.00;100218.78;4946139;58;1143132;-70
2022/10/02 06:58:00;;;;;;;8.27;2.03;;;;;;;11.48;100.00;100221.30;4974120;59;1143344;-71
2022/10/02 07:03:29;;;;;;;5.23;1.73;;;;;;;11.49;100.00;100222.14;4971212;59;1141381;-67
2022/10/02 07:09:08;;;;;;;8.27;1.60;;;;;;;11.52;100.00;100215.26;4994445;58;1139252;-70
2022/10/02 07:14:43;;;;;;;6.77;1.97;;;;;;;11.54;100.00;100219.45;5030498;58;1139059;-68
2022/10/02 07:20:01;;;;;;;8.07;1.90;;;;;;;11.57;100.00;100228.95;5067026;57;1139039;-67
2022/10/02 07:25:32;;;;;;;9.97;2.00;;;;;;;11.58;100.00;100226.17;5029606;58;1137069;-69
2022/10/02 07:30:49;;;;;;;7.07;2.17;;;;;;;11.63;100.00;100228.41;5013064;58;1141105;-68
2022/10/02 07:36:28;;;;;;;6.93;1.70;;;;;;;11.68;100.00;100230.66;5095214;57;1141130;-69
2022/10/02 07:42:00;;;;;;;8.03;1.70;;;;;;;11.75;100.00;100226.52;5091319;57;1141127;-70
2022/10/02 07:47:21;;;;;;;10.60;1.90;;;;;;;11.79;100.00;100232.76;4873705;59;1141196;-67
2022/10/02 07:52:55;;;;;;;13.80;2.27;;;;;;;11.86;100.00;100235.72;4941117;59;1143521;-68
2022/10/02 07:58:41;;;;;;;8.73;2.00;;;;;;;11.88;100.00;100233.30;4920308;59;1143336;-69
2022/10/02 08:04:12;;;;;;;10.73;2.07;;;;;;;11.93;100.00;100233.71;5044850;58;1139256;-69
2022/10/02 08:09:25;;;;;;;8.37;2.77;;;;;;;11.96;100.00;100236.59;5047144;58;1141202;-69
2022/10/02 08:14:41;;;;;;;7.57;2.17;;;;;;;12.00;100.00;100238.00;5036064;58;1139067;-68
2022/10/02 08:19:50;;;;;;;7.90;1.93;;;;;;;12.01;100.00;100241.00;4953016;58;1139136;-69
2022/10/02 08:25:03;;;;;;;8.73;1.70;;;;;;;12.02;100.00;100238.71;5063156;57;1139250;-67
2022/10/02 08:30:12;;;;;;;11.97;3.60;;;;;;;12.03;100.00;100238.22;5067830;57;1139424;-69
2022/10/02 08:35:20;;;;;;;7.93;1.53;;;;;;;12.07;100.00;100231.69;5068066;57;1139043;-70
2022/10/02 08:40:54;;;;;;;10.23;2.17;;;;;;;12.10;100.00;100241.51;5110843;57;21495;-68
2022/10/02 08:46:42;;;;;;;8.03;2.10;;;;;;;12.19;100.00;100242.52;5101772;57;1139065;-68
2022/10/02 08:52:42;;;;;;;21.33;2.17;;;;;;;12.22;100.00;100232.46;5084019;57;1141077;-70
2022/10/02 08:58:11;;;;;;;7.53;2.40;;;;;;;12.23;100.00;100240.77;5119420;56;1143128;-68
2022/10/02 09:03:50;;;;;;;5.87;1.60;;;;;;;12.18;100.00;100243.50;5096590;57;1141187;-68
2022/10/02 09:09:21;;;;;;;6.70;2.10;;;;;;;12.16;100.00;100248.93;5071457;57;1139064;-69
2022/10/02 09:14:44;;;;;;;11.20;2.47;;;;;;;12.18;100.00;100242.17;5076569;57;1139068;-70
2022/10/02 09:20:22;;;;;;;7.43;2.73;;;;;;;12.17;100.00;100243.98;5110016;56;1141771;-68
2022/10/02 09:25:57;;;;;;;9.57;1.97;;;;;;;12.16;100.00;100246.28;5000097;57;1137128;-68
2022/10/02 09:31:43;;;;;;;6.73;1.60;;;;;;;12.19;100.00;100248.66;5046376;58;1141324;-69
2022/10/02 09:37:44;;;;;;;7.77;1.80;;;;;;;12.23;100.00;100246.55;5039888;58;1141325;-67
2022/10/02 09:43:44;;;;;;;8.33;2.20;;;;;;;12.30;100.00;100256.98;5147575;56;1141309;-68
2022/10/02 09:49:24;;;;;;;8.10;1.93;;;;;;;12.36;100.00;100235.72;5067535;57;1141186;-66
2022/10/02 09:55:01;;;;;;;12.10;2.77;;;;;;;12.47;100.00;100232.45;5058568;58;1139091;-70
2022/10/02 10:01:01;;;;;;;7.90;1.53;;;;;;;12.67;100.00;100226.19;5030260;58;1141309;-69
2022/10/02 10:06:24;;;;;;;11.97;2.27;;;;;;;12.78;100.00;100233.66;5020452;57;1141206;-70
2022/10/02 10:11:59;;;;;;;9.20;2.00;;;;;;;12.90;100.00;100221.41;5007032;58;1143139;-68
2022/10/02 10:17:19;;;;;;;6.70;1.53;;;;;;;12.94;100.00;100222.82;4945528;59;1141151;-68
2022/10/02 10:22:48;;;;;;;7.70;1.50;;;;;;;13.10;100.00;100212.95;5015489;58;1141243;-67
2022/10/02 10:28:33;;;;;;;6.67;1.67;;;;;;;13.48;100.00;100209.86;4996264;58;1141146;-69
2022/10/02 10:33:58;;;;;;;3.25;1.30;;;;;;;13.87;100.00;100204.74;5019679;58;1141192;-69
2022/10/02 10:39:13;;;;;;;7.07;0.93;;;;;;;13.99;100.00;100204.05;5044713;58;1141280;-69
2022/10/02 10:44:46;;;;;;;6.27;1.30;;;;;;;14.02;100.00;100226.36;5052523;58;1139030;-70
2022/10/02 10:50:34;;;;;;;2.77;1.13;;;;;;;13.93;99.62;100223.23;5067104;58;1139115;-66
2022/10/02 10:55:59;;;;;;;4.07;1.40;;;;;;;13.70;98.71;100222.30;5075864;58;1136950;-67
2022/10/02 11:01:27;;;;;;;4.50;1.57;;;;;;;13.65;99.49;100237.00;5078014;57;1139252;-66
2022/10/02 11:07:00;;;;;;;7.80;1.60;;;;;;;13.73;100.00;100226.00;5147560;57;1139036;-67
2022/10/02 11:12:27;;;;;;;6.10;1.70;;;;;;;13.88;100.00;100226.85;5082912;57;1141113;-68
2022/10/02 11:17:55;;;;;;;6.00;1.53;;;;;;;14.24;100.00;100227.26;5098677;57;1141237;-67
2022/10/02 11:23:23;;;;;;;2.67;1.03;;;;;;;14.24;96.36;100227.75;5007035;57;1141659;-68
2022/10/02 11:28:59;;;;;;;7.53;1.27;;;;;;;14.25;94.75;100216.13;5118843;56;1139653;-68
2022/10/02 11:34:39;;;;;;;5.03;1.17;;;;;;;14.61;92.66;100209.89;5117740;56;1139014;-67
2022/10/02 11:40:11;;;;;;;2.50;1.00;;;;;;;14.72;91.59;100208.80;5155325;56;1137009;-68
2022/10/02 11:45:30;;;;;;;7.53;1.20;;;;;;;14.75;92.05;100208.02;5086670;57;1136873;-69
2022/10/02 11:51:00;;;;;;;4.77;1.57;;;;;;;14.64;92.68;100202.93;5121728;57;1137032;-67
2022/10/02 11:56:29;;;;;;;6.70;1.50;;;;;;;14.93;95.28;100199.17;5213144;56;1139009;-69
2022/10/02 12:01:56;;;;;;;7.57;1.80;;;;;;;15.51;93.76;100190.55;5221180;56;1139056;-69
2022/10/02 12:07:32;;;;;;;2.97;1.17;;;;;;;15.77;90.87;100192.70;5232409;55;1139039;-67
2022/10/02 12:12:53;;;;;;;6.67;1.30;;;;;;;15.56;89.23;100186.95;5278939;55;1139056;-68
2022/10/02 12:18:07;;;;;;;3.80;1.17;;;;;;;15.39;89.42;100184.66;5278882;56;1139037;-68
2022/10/02 12:29:24;;;;;;;4.50;1.40;;;;;;;15.36;92.87;100159.66;5129792;57;1139586;-69
2022/10/02 12:34:47;;;;;;;3.50;1.07;;;;;;;15.39;90.54;100163.34;5125625;57;1139179;-69
2022/10/02 12:40:22;;;;;;;6.83;2.50;;;;;;;15.41;90.69;100174.69;5037702;58;1137164;-70
2022/10/02 12:45:53;;;;;;;9.03;1.70;;;;;;;15.26;88.71;100160.28;4834902;60;1137037;-70
2022/10/02 12:51:24;;;;;;;4.53;1.00;;;;;;;15.10;90.10;100161.02;4766315;61;1137490;-69
2022/10/02 12:57:03;;;;;;;6.25;1.67;;;;;;;15.09;91.35;100156.67;4742598;60;1139264;-67
2022/10/02 13:02:35;;;;;;;5.47;1.27;;;;;;;15.20;93.55;100156.41;4761127;61;1139254;-67
2022/10/02 13:08:17;;;;;;;3.77;1.20;;;;;;;15.51;94.29;100154.57;4842019;60;1139212;-67
2022/10/02 13:14:17;;;;;;;5.53;0.90;;;;;;;15.35;92.57;100152.66;4842166;60;1139225;-69
2022/10/02 13:19:33;;;;;;;3.90;1.07;;;;;;;15.08;94.08;100155.00;4870731;58;1139204;-69
2022/10/02 13:24:59;;;;;;;7.87;1.77;;;;;;;15.21;95.26;100149.25;5018051;58;1139104;-66
2022/10/02 13:30:27;;;;;;;5.67;1.20;;;;;;;15.30;94.59;100145.13;4991407;58;1137053;-70
2022/10/02 13:35:58;;;;;;;5.20;1.30;;;;;;;15.29;93.05;100150.61;4990527;58;1137157;-67
2022/10/02 13:41:13;;;;;;;5.10;1.83;;;;;;;15.14;93.06;100137.05;4991198;58;1136999;-68
2022/10/02 13:46:41;;;;;;;6.37;1.70;;;;;;;15.06;94.54;100133.02;5068476;58;1135138;-70
2022/10/02 13:52:12;;;;;;;5.47;1.40;;;;;;;15.05;95.65;100123.35;5008407;57;1138992;-68
2022/10/02 13:57:28;;;;;;;3.87;1.57;;;;;;;15.03;95.55;100121.34;4896349;59;1139037;-68
2022/10/02 14:03:06;;;;;;;4.17;1.87;;;;;;;15.05;96.20;100118.02;4887003;59;1139110;-69
2022/10/02 14:08:42;;;;;;;4.40;1.60;;;;;;;15.02;96.95;100111.17;4897259;59;1139198;-69
2022/10/02 14:14:21;;;;;;;2.90;1.17;;;;;;;15.13;97.14;100112.73;4892961;59;1139267;-66
2022/10/02 14:19:51;;;;;;;3.63;1.33;;;;;;;15.23;96.03;100109.97;4865240;59;1139114;-67
2022/10/02 14:25:31;;;;;;;4.83;1.60;;;;;;;15.30;97.15;100098.50;4889788;58;1136918;-69
2022/10/02 14:30:59;;;;;;;6.40;1.83;;;;;;;15.43;95.21;100097.55;4946797;58;1137108;-70
2022/10/02 14:36:24;;;;;;;5.30;1.10;;;;;;;15.70;95.29;100092.55;5200494;56;1136949;-70
2022/10/02 14:42:05;;;;;;;7.17;2.17;;;;;;;16.01;92.69;100091.95;5236331;55;1134941;-71
2022/10/02 14:47:27;;;;;;;4.37;1.63;;;;;;;16.15;92.21;100096.63;5286108;55;1139224;-67
2022/10/02 14:52:43;;;;;;;8.73;1.60;;;;;;;16.10;92.10;100097.61;5310423;55;1139014;-68
2022/10/02 14:58:15;;;;;;;10.13;1.73;;;;;;;16.15;90.94;100096.13;5223401;55;1138976;-69
2022/10/02 15:03:38;;;;;;;10.50;2.37;;;;;;;16.06;94.47;100117.61;5264931;55;1141095;-67
2022/10/02 15:09:12;;;;;;;5.87;2.12;;;;;;;15.62;96.61;100119.16;5227778;55;1141136;-70
2022/10/02 15:14:25;;;;;;;10.72;3.98;;;;;;;15.43;98.90;100112.22;5267618;55;1139043;-68
2022/10/02 15:19:38;;;;;;;;;;;;;;;15.31;99.58;100119.32;5270479;55;1141102;-69
2022/10/02 15:24:49;;;;;;;15.75;6.28;;;;;;;15.10;99.94;100123.23;5273774;55;976382;-69
2022/10/02 15:30:17;;;;;;;8.80;4.08;;;;;;;14.98;100.00;100123.13;5265334;55;1139022;-68
2022/10/02 15:35:39;;;;;;;13.47;4.30;;;;;;;14.83;100.00;100121.19;5243763;55;1139129;-67
2022/10/02 15:41:22;;;;;;;5.90;2.23;;;;;;;14.82;100.00;100128.87;5242615;55;1141087;-67
2022/10/02 15:46:58;;;;;;;4.83;1.53;;;;;;;14.81;100.00;100120.05;5178946;55;1139103;-69
2022/10/02 15:52:26;;;;;;;6.15;1.77;;;;;;;14.45;99.78;100123.25;5170146;55;1141337;-70
2022/10/02 15:58:00;;;;;;;3.55;1.98;;;;;;;14.18;99.97;100131.28;5244624;55;1139287;-68
2022/10/02 16:03:25;;;;;;;6.30;1.25;;;;;;;14.37;100.00;100137.27;5212306;55;1139033;-68
2022/10/02 16:08:59;;;;;;;2.67;1.20;;;;;;;14.16;99.90;100141.23;5237275;55;1141107;-70
2022/10/02 16:14:18;;;;;;;3.23;1.43;;;;;;;13.96;100.00;100149.83;5150503;56;1139016;-68
2022/10/02 16:19:31;;;;;;;2.77;1.63;;;;;;;13.90;100.00;100148.59;5170822;56;1141040;-67
2022/10/02 16:25:03;;;;;;;5.10;2.33;;;;;;;13.79;100.00;100157.27;5195937;56;1141270;-71
2022/10/02 16:30:17;;;;;;;2.80;1.40;;;;;;;13.57;100.00;100172.64;5201648;56;1140602;-68
2022/10/02 16:35:53;;;;;;;6.13;1.60;;;;;;;13.44;100.00;100186.75;5217344;56;1139158;-70
2022/10/02 16:41:25;;;;;;;3.83;1.57;;;;;;;13.38;100.00;100184.17;5221243;56;1139073;-69
2022/10/02 16:46:55;;;;;;;10.78;4.50;;;;;;;13.40;100.00;100193.82;5249455;55;1139516;-68
2022/10/02 16:52:22;;;;;;;7.10;3.43;;;;;;;13.29;100.00;100250.09;5245209;55;1139032;-66
2022/10/02 16:57:53;;;;;;;9.00;3.83;;;;;;;12.97;100.00;100241.61;5183274;55;1141128;-68
2022/10/02 17:03:34;;;;;;;3.23;2.57;;;;;;;12.61;100.00;100247.96;5222669;55;1141121;-68
2022/10/02 17:08:54;;;;;;;10.80;4.77;;;;;;;12.24;100.00;100244.26;5189018;55;1141130;-69
2022/10/02 17:14:17;;;;;;;8.20;4.00;;;;;;;11.97;100.00;100225.02;5171508;55;1143169;-69
2022/10/02 17:19:49;;;;;;;4.07;1.37;;;;;;;11.84;100.00;100232.37;5165894;55;1141063;-69
2022/10/02 17:25:11;;;;;;;2.67;1.63;;;;;;;11.73;100.00;100225.33;5209681;55;1141122;-70
2022/10/02 17:30:25;;;;;;;5.30;3.13;;;;;;;11.61;100.00;100238.29;5229071;55;1141147;-69
2022/10/02 17:35:53;;;;;;;4.13;2.10;;;;;;;11.49;100.00;100248.14;5203203;55;1141186;-69
2022/10/02 17:41:15;;;;;;;2.20;1.20;;;;;;;11.50;100.00;100252.95;5235923;55;1139033;-70
2022/10/02 17:46:41;;;;;;;10.60;2.20;;;;;;;11.53;100.00;100257.50;5242881;55;1139078;-69
2022/10/02 17:56:26;;;;;;;4.53;2.13;;;;;;;11.47;100.00;100265.96;5222953;55;1141147;-70
2022/10/02 17:57:27;;;;;;;;;;;;;;;11.39;100.00;100270.25;5278991;56;1137032;-68
2022/10/02 18:02:40;;;;;;;4.70;1.60;;;;;;;11.30;100.00;100281.14;5268933;55;978550;-70
2022/10/02 18:08:19;;;;;;;3.93;1.07;;;;;;;11.18;100.00;100273.73;5273374;56;1138954;-67
2022/10/02 18:13:41;;;;;;;3.03;0.80;;;;;;;11.10;100.00;100282.81;5218712;55;1141211;-70
2022/10/02 18:19:40;;;;;;;2.97;1.30;;;;;;;11.04;100.00;100286.44;5226048;56;1141123;-67
2022/10/02 18:25:29;;;;;;;4.37;1.37;;;;;;;10.99;100.00;100288.64;5235460;56;1141268;-68
2022/10/02 18:30:46;;;;;;;4.40;1.53;;;;;;;10.90;100.00;100297.68;5238062;56;1140975;-69
2022/10/02 18:36:19;;;;;;;5.10;1.30;;;;;;;10.83;100.00;100295.20;5196324;56;1139036;-68
2022/10/02 18:42:02;;;;;;;2.83;1.57;;;;;;;10.83;100.00;100295.20;5176587;56;1139193;-68
2022/10/02 18:47:15;;;;;;;2.50;1.53;;;;;;;10.80;100.00;100303.38;5167442;56;1139182;-68
2022/10/02 18:52:44;;;;;;;3.87;1.20;;;;;;;10.78;100.00;100302.66;5131274;56;1136968;-69
2022/10/02 18:58:30;;;;;;;4.53;2.13;;;;;;;10.73;100.00;100299.55;5218815;56;1141073;-68
2022/10/02 19:04:06;;;;;;;2.10;1.40;;;;;;;10.68;100.00;100300.42;5218033;56;1141272;-70
2022/10/02 19:09:19;;;;;;;9.43;1.67;;;;;;;10.63;100.00;100299.11;5197327;56;1141136;-70
2022/10/02 19:14:35;;;;;;;6.90;1.63;;;;;;;10.62;100.00;100291.66;5164689;56;1141124;-69
2022/10/02 19:19:42;;;;;;;7.83;1.90;;;;;;;10.62;100.00;100291.66;5161110;56;1141293;-70
2022/10/02 19:25:01;;;;;;;3.50;1.77;;;;;;;10.60;100.00;100295.38;5179867;56;1141322;-69
2022/10/02 19:30:13;;;;;;;3.97;1.90;;;;;;;10.55;100.00;100292.62;5165938;56;1141145;-70
2022/10/02 19:35:28;;;;;;;10.73;2.27;;;;;;;10.52;100.00;100302.15;5187642;55;1141238;-69
2022/10/02 19:40:35;;;;;;;5.53;2.83;;;;;;;10.50;100.00;100293.50;5179518;56;1143155;-70
2022/10/02 19:45:43;;;;;;;3.07;1.40;;;;;;;10.47;100.00;100295.06;5219959;56;1141091;-67
2022/10/02 19:50:52;;;;;;;3.10;1.60;;;;;;;10.45;100.00;100291.70;5222080;56;1141238;-67
2022/10/02 19:56:02;;;;;;;10.40;2.13;;;;;;;10.42;100.00;100294.58;5221380;56;1141138;-68
2022/10/02 20:01:18;;;;;;;8.27;2.17;;;;;;;10.42;100.00;100301.67;5166584;55;1141133;-71
2022/10/02 20:06:29;;;;;;;8.13;2.30;;;;;;;10.40;100.00;100299.62;5167551;56;1139083;-68
2022/10/02 20:12:07;;;;;;;4.03;2.20;;;;;;;10.38;100.00;100300.26;5172877;56;1139071;-68
2022/10/02 20:17:16;;;;;;;5.33;1.77;;;;;;;10.37;100.00;100301.22;5230570;56;1139153;-69
2022/10/02 20:22:40;;;;;;;6.60;2.27;;;;;;;10.34;100.00;100289.08;5221080;55;1139060;-70
2022/10/02 20:27:57;;;;;;;8.23;3.08;;;;;;;10.36;100.00;100314.92;5195125;56;1137030;-69
2022/10/02 20:33:13;;;;;;;6.07;2.10;;;;;;;10.37;100.00;100312.63;5198147;56;1141097;-70
2022/10/02 20:38:26;;;;;;;6.70;2.90;;;;;;;10.38;100.00;100315.64;5170339;56;1141278;-69
2022/10/02 20:43:52;;;;;;;3.27;1.65;;;;;;;10.37;100.00;100320.56;5204716;56;1141085;-69
2022/10/02 20:49:46;;;;;;;5.05;1.65;;;;;;;10.34;100.00;100313.36;5190503;55;1141343;-66
2022/10/02 20:55:25;;;;;;;4.23;1.70;;;;;;;10.33;100.00;100318.28;5221138;55;1141362;-68
2022/10/02 21:00:50;;;;;;;5.03;2.20;;;;;;;10.31;100.00;100330.77;5155287;55;1141193;-68
2022/10/02 21:06:07;;;;;;;7.73;2.13;;;;;;;10.26;100.00;100326.32;5168704;55;1141165;-67
2022/10/02 21:11:55;;;;;;;8.67;1.80;;;;;;;10.19;100.00;100326.83;5194289;56;1141365;-69
2022/10/02 21:17:22;;;;;;;5.23;1.77;;;;;;;10.13;100.00;100330.39;5221763;56;1139153;-68
2022/10/02 21:23:10;;;;;;;3.43;1.80;;;;;;;10.09;100.00;100330.26;5218796;56;1139068;-66
2022/10/02 21:28:37;;;;;;;5.80;2.10;;;;;;;9.99;100.00;100330.62;5211252;56;1141065;-66
2022/10/02 21:33:50;;;;;;;3.77;1.37;;;;;;;9.94;100.00;100335.42;5211550;56;1139222;-71
2022/10/02 21:39:29;;;;;;;1.90;1.20;;;;;;;9.91;100.00;100340.97;5222028;56;1139174;-70
2022/10/02 21:45:13;;;;;;;8.18;1.20;;;;;;;9.86;100.00;100340.00;5221406;56;1139393;-69
2022/10/02 21:50:34;;;;;;;2.57;1.90;;;;;;;9.88;100.00;100340.72;5221550;56;1139311;-69
2022/10/02 21:56:14;;;;;;;2.93;1.00;;;;;;;9.91;100.00;100331.72;5220625;56;1139041;-69
2022/10/02 22:01:42;;;;;;;2.70;1.40;;;;;;;9.96;100.00;100329.55;5221786;56;1139270;-69
2022/10/02 22:07:04;;;;;;;3.17;1.10;;;;;;;9.96;100.00;100326.42;5221349;56;1136923;-68
2022/10/02 22:12:26;;;;;;;2.30;0.80;;;;;;;9.94;100.00;100324.38;5190364;56;1137091;-69
2022/10/02 22:17:45;;;;;;;3.67;1.33;;;;;;;9.96;100.00;100330.86;5210992;56;1136903;-68
2022/10/02 22:23:10;;;;;;;1.90;1.03;;;;;;;9.92;100.00;100326.33;5207600;56;1137209;-70
2022/10/02 22:28:43;;;;;;;2.33;1.07;;;;;;;9.94;100.00;100323.05;5221876;56;1138976;-70
2022/10/02 22:34:15;;;;;;;7.13;0.97;;;;;;;9.95;100.00;100331.83;5221461;56;1139046;-69
2022/10/02 22:39:31;;;;;;;4.08;0.80;;;;;;;9.97;100.00;100335.19;5221451;56;1139040;-70
2022/10/02 22:44:50;;;;;;;3.30;1.05;;;;;;;9.96;100.00;100330.86;5198082;56;1139080;-66
2022/10/02 22:49:59;;;;;;;0.67;0.67;;;;;;;9.96;100.00;100332.19;5222640;56;1139450;-68
2022/10/02 22:55:28;;;;;;;5.43;1.30;;;;;;;9.95;100.00;100329.18;5221721;56;1139051;-66
2022/10/02 23:00:54;;;;;;;6.87;1.00;;;;;;;9.95;100.00;100322.09;5222282;56;1139038;-66
2022/10/02 23:06:20;;;;;;;1.23;0.50;;;;;;;9.95;100.00;100322.09;5221069;56;1139026;-68
2022/10/02 23:11:55;;;;;;;6.47;1.27;;;;;;;10.02;100.00;100333.88;5156370;56;1138981;-70
2022/10/02 23:17:27;;;;;;;4.17;1.20;;;;;;;10.04;100.00;100331.97;5129374;57;1138949;-70
2022/10/02 23:22:38;;;;;;;2.43;1.10;;;;;;;10.06;100.00;100324.77;5130858;57;1139036;-70
2022/10/02 23:27:58;;;;;;;4.57;1.20;;;;;;;10.07;100.00;100329.09;5130073;56;1139030;-67
2022/10/02 23:33:20;;;;;;;7.43;1.50;;;;;;;10.07;100.00;100331.73;5177226;56;1139263;-69
2022/10/02 23:38:51;;;;;;;12.27;1.90;;;;;;;10.12;100.00;100336.63;5221800;56;1136912;-69
2022/10/02 23:44:27;;;;;;;3.83;1.50;;;;;;;10.16;100.00;100348.17;5129597;56;1143201;-67
2022/10/02 23:49:56;;;;;;;1.93;0.97;;;;;;;10.19;100.00;100353.73;5195724;56;1141078;-69
2022/10/02 23:55:20;;;;;;;5.10;1.33;;;;;;;10.21;100.00;100348.70;5143574;56;1141289;-68
